Time;durP1;ratioP1;P1;durP2;ratioP2;P2;SDS_P1;SDS_P2;PMS_P1;PMS_P2;Temp;Humidity;BMP_temperature;BMP_pressure;BME280_temperature;BME280_humidity;BME280_pressure;Samples;Min_cycle;Max_cycle;Signal;HPM_P1;HPM_P2
2023/04/11 03:01:03;;;;;;;1.60;0.20;;;15.00;45.90;;;;;;5961823;23;88495;31
2023/04/11 03:03:28;;;;;;;0.90;0.10;;;14.90;46.30;;;;;;4861117;28;87448;-72
2023/04/11 03:05:55;;;;;;;4.80;0.20;;;14.90;45.40;;;;;;4864136;29;87584;-71
2023/04/11 03:08:21;;;;;;;1.08;0.13;;;14.90;48.80;;;;;;4863541;29;88285;-72
2023/04/11 03:10:47;;;;;;;1.40;0.20;;;14.80;46.90;;;;;;4864585;29;87781;-74
2023/04/11 03:13:13;;;;;;;1.52;0.20;;;14.80;46.10;;;;;;4864604;29;87256;-73
2023/04/11 03:15:38;;;;;;;3.47;0.10;;;14.80;46.30;;;;;;4864775;29;87406;-72
2023/04/11 03:18:04;;;;;;;0.68;0.10;;;14.70;47.30;;;;;;4863498;29;88618;-72
2023/04/11 03:20:30;;;;;;;1.08;0.20;;;14.80;46.60;;;;;;4863824;29;88095;-73
2023/04/11 03:22:56;;;;;;;1.83;0.10;;;14.90;46.50;;;;;;4864056;29;87291;-72
2023/04/11 03:25:21;;;;;;;1.40;0.20;;;14.90;45.80;;;;;;4864549;29;87073;-73
2023/04/11 03:27:47;;;;;;;1.02;0.10;;;15.00;46.40;;;;;;4863493;29;88111;-72
2023/04/11 03:30:13;;;;;;;0.93;0.20;;;15.10;46.30;;;;;;4862251;28;90997;-72
2023/04/11 03:32:39;;;;;;;0.63;0.10;;;15.10;46.20;;;;;;4863469;29;87200;-75
2023/04/11 03:35:05;;;;;;;1.60;0.13;;;15.10;46.00;;;;;;4864392;29;86345;-74
2023/04/11 03:37:31;;;;;;;1.95;0.13;;;15.10;46.40;;;;;;4863700;29;88024;-73
2023/04/11 03:39:56;;;;;;;0.88;0.15;;;15.20;46.10;;;;;;4863730;29;87399;-73
2023/04/11 03:42:22;;;;;;;1.70;0.20;;;15.20;46.70;;;;;;4862215;28;88364;-73
2023/04/11 03:44:48;;;;;;;6.10;0.20;;;15.10;46.60;;;;;;4863799;28;87595;-73
2023/04/11 03:47:14;;;;;;;3.83;0.10;;;15.10;48.90;;;;;;4863566;29;87972;-73
2023/04/11 03:49:39;;;;;;;1.13;0.20;;;15.00;51.10;;;;;;4860310;29;87911;-73
2023/04/11 03:52:06;;;;;;;1.60;0.10;;;15.00;52.20;;;;;;4860572;28;87477;-74
2023/04/11 03:54:32;;;;;;;1.10;0.30;;;15.10;52.10;;;;;;4845048;28;89240;-73
2023/04/11 03:56:57;;;;;;;1.38;0.20;;;15.00;53.10;;;;;;4858584;28;88959;-73
2023/04/11 03:59:23;;;;;;;2.40;0.20;;;14.90;54.80;;;;;;4863096;28;88399;-72
2023/04/11 04:01:49;;;;;;;2.22;0.20;;;14.90;56.20;;;;;;4855579;28;87584;-72
2023/04/11 04:04:22;;;;;;;3.05;0.20;;;14.80;56.60;;;;;;4867210;28;87589;-73
2023/04/11 04:06:48;;;;;;;1.90;0.20;;;14.80;56.90;;;;;;4860195;28;88630;-73
2023/04/11 04:09:14;;;;;;;2.15;0.20;;;14.90;56.40;;;;;;4863669;28;88419;-74
2023/04/11 04:11:40;;;;;;;3.80;0.30;;;14.90;56.80;;;;;;4860057;28;88122;-73
2023/04/11 04:14:09;;;;;;;2.05;0.20;;;14.90;57.00;;;;;;4858638;28;88241;-73
2023/04/11 04:16:35;;;;;;;1.55;0.22;;;14.80;56.90;;;;;;4847731;28;87668;-73
2023/04/11 04:19:01;;;;;;;2.53;0.25;;;14.90;56.70;;;;;;4861808;28;89895;-73
2023/04/11 04:21:31;;;;;;;3.95;0.20;;;14.90;56.50;;;;;;4860651;28;88165;-73
2023/04/11 04:24:02;;;;;;;;;;;15.00;56.10;;;;;;4863538;28;86584;-74
2023/04/11 04:26:28;;;;;;;1.38;0.20;;;15.00;56.40;;;;;;4854933;28;87480;-74
2023/04/11 04:28:56;;;;;;;1.52;0.20;;;15.00;56.60;;;;;;4860982;28;87362;-73
2023/04/11 04:31:24;;;;;;;3.50;0.20;;;15.00;56.50;;;;;;4855478;28;89795;-73
2023/04/11 04:33:50;;;;;;;2.88;0.40;;;15.00;56.90;;;;;;4861021;28;87153;-73
2023/04/11 04:36:16;;;;;;;4.57;0.30;;;15.00;58.60;;;;;;4854485;29;88651;-73
2023/04/11 04:38:43;;;;;;;3.97;0.30;;;15.00;59.10;;;;;;4855976;28;87369;-74
2023/04/11 04:41:14;;;;;;;3.30;0.40;;;14.90;62.00;;;;;;4863582;28;87325;-75
2023/04/11 04:43:41;;;;;;;3.40;0.20;;;14.70;62.30;;;;;;4858299;29;87312;-73
2023/04/11 04:46:07;;;;;;;2.35;0.22;;;14.60;64.20;;;;;;4847509;28;90600;-74
2023/04/11 04:48:33;;;;;;;2.88;0.50;;;14.20;66.60;;;;;;4852986;28;88818;-73
2023/04/11 04:50:58;;;;;;;1.55;0.25;;;14.20;66.70;;;;;;4852230;28;87521;-73
2023/04/11 04:53:24;;;;;;;2.67;0.30;;;14.20;68.40;;;;;;4852411;28;88276;-73
2023/04/11 04:55:50;;;;;;;2.63;0.30;;;14.10;68.00;;;;;;4857932;28;90123;-74
2023/04/11 04:58:15;;;;;;;1.85;0.25;;;14.10;68.00;;;;;;4858924;28;87577;-74
2023/04/11 05:00:41;;;;;;;1.88;0.30;;;14.10;68.80;;;;;;4851972;29;87691;-74
2023/04/11 05:03:07;;;;;;;3.33;0.40;;;14.10;67.20;;;;;;4857105;29;87660;-73
2023/04/11 05:05:33;;;;;;;2.55;0.40;;;14.10;69.60;;;;;;4858722;28;87717;-73
2023/04/11 05:07:59;;;;;;;1.92;0.30;;;14.10;68.50;;;;;;4857504;29;87899;-73
2023/04/11 05:10:25;;;;;;;1.40;0.30;;;14.10;69.60;;;;;;4858361;28;87529;-73
2023/04/11 05:12:52;;;;;;;3.83;0.30;;;14.00;70.30;;;;;;4860867;29;86701;-73
2023/04/11 05:15:20;;;;;;;2.78;0.47;;;14.10;72.00;;;;;;4856988;29;88268;-72
2023/04/11 05:17:45;;;;;;;2.42;0.52;;;14.00;71.50;;;;;;4859846;29;87528;-73
2023/04/11 05:20:12;;;;;;;3.67;0.70;;;14.00;71.80;;;;;;4858889;29;88399;-73
2023/04/11 05:22:38;;;;;;;2.42;0.40;;;13.90;72.50;;;;;;4861176;29;89241;-73
2023/04/11 05:25:04;;;;;;;5.85;0.60;;;13.90;73.50;;;;;;4837914;29;89911;-73
2023/04/11 05:27:30;;;;;;;3.65;0.50;;;13.90;78.10;;;;;;4857375;29;87591;-73
2023/04/11 05:29:55;;;;;;;2.88;0.40;;;13.90;74.70;;;;;;4853525;28;88670;-72
2023/04/11 05:32:21;;;;;;;4.32;0.40;;;13.90;76.60;;;;;;4855190;28;87450;-72
2023/04/11 05:34:54;;;;;;;2.88;0.60;;;13.70;76.60;;;;;;4871008;28;87460;-72
2023/04/11 05:37:20;;;;;;;5.35;0.40;;;13.70;76.90;;;;;;4844778;29;88757;-72
2023/04/11 05:39:46;;;;;;;8.90;0.80;;;13.70;77.80;;;;;;4842177;29;87785;-72
2023/04/11 05:42:12;;;;;;;7.50;1.00;;;13.70;77.70;;;;;;4842728;29;89112;-72
2023/04/11 05:44:39;;;;;;;2.22;0.35;;;13.60;78.30;;;;;;4853335;29;88981;-73
2023/04/11 05:47:05;;;;;;;3.92;0.60;;;13.60;77.70;;;;;;4860318;28;89245;-72
2023/04/11 05:49:30;;;;;;;4.18;0.40;;;13.60;78.50;;;;;;4847621;29;89281;-72
2023/04/11 05:51:56;;;;;;;3.03;0.60;;;13.50;78.50;;;;;;4861564;29;87585;-72
2023/04/11 05:54:35;;;;;;;5.30;0.80;;;13.50;80.10;;;;;;4848874;29;89236;-72
2023/04/11 05:57:02;;;;;;;2.92;0.52;;;13.50;80.60;;;;;;4842876;28;89511;-72
2023/04/11 05:59:30;;;;;;;3.47;0.70;;;13.40;80.90;;;;;;4849026;29;87193;-72
2023/04/11 06:01:57;;;;;;;2.10;0.70;;;13.40;81.20;;;;;;4853816;29;87038;-72
2023/04/11 06:04:22;;;;;;;3.15;0.70;;;13.30;82.40;;;;;;4854438;29;88156;-72
2023/04/11 06:06:48;;;;;;;4.25;1.10;;;13.20;82.90;;;;;;4865278;29;87388;-72
2023/04/11 06:09:14;;;;;;;3.88;0.50;;;13.20;83.20;;;;;;4862673;29;89805;-72
2023/04/11 06:11:39;;;;;;;4.93;0.70;;;13.10;81.90;;;;;;4860310;28;89231;-72
2023/04/11 06:14:05;;;;;;;6.32;0.80;;;12.90;84.60;;;;;;4863534;29;89357;-72
2023/04/11 06:16:32;;;;;;;5.68;0.57;;;12.90;86.70;;;;;;4863519;29;88192;-72
2023/04/11 06:18:58;;;;;;;2.13;0.20;;;12.90;87.20;;;;;;4864185;29;87696;-72
2023/04/11 06:21:23;;;;;;;2.88;0.43;;;12.90;85.20;;;;;;4860091;28;87349;-72
2023/04/11 06:23:49;;;;;;;2.20;0.13;;;12.80;84.50;;;;;;4875014;28;87491;-72
2023/04/11 06:26:15;;;;;;;1.25;0.20;;;12.80;84.70;;;;;;4854386;28;87893;-72
2023/04/11 06:28:40;;;;;;;1.63;0.03;;;12.80;83.20;;;;;;4859409;29;87451;-72
2023/04/11 06:31:08;;;;;;;2.35;0.00;;;12.80;82.90;;;;;;4865176;29;87347;-72
2023/04/11 06:33:33;;;;;;;0.88;0.20;;;12.70;81.80;;;;;;4862184;29;89337;-72
2023/04/11 06:35:59;;;;;;;1.27;0.10;;;12.70;82.60;;;;;;4863311;28;88257;-72
2023/04/11 06:38:25;;;;;;;0.52;0.00;;;12.60;83.10;;;;;;4864099;29;87860;-72
2023/04/11 06:40:53;;;;;;;1.83;0.00;;;12.70;82.00;;;;;;4865241;29;87487;-72
2023/04/11 06:43:19;;;;;;;0.60;0.10;;;12.60;83.40;;;;;;4864558;29;88195;-71
2023/04/11 06:45:45;;;;;;;0.98;0.10;;;12.60;83.20;;;;;;4864465;28;87694;-71
2023/04/11 06:48:11;;;;;;;1.30;0.10;;;12.50;83.90;;;;;;4863779;29;87507;-73
2023/04/11 06:50:40;;;;;;;0.50;0.10;;;12.50;83.90;;;;;;4863888;28;88556;-71
2023/04/11 06:53:06;;;;;;;0.55;0.00;;;12.50;83.40;;;;;;4863990;29;87671;-71
2023/04/11 06:55:32;;;;;;;0.40;0.03;;;12.50;83.70;;;;;;4864021;29;87926;-72
2023/04/11 06:57:57;;;;;;;2.47;0.00;;;12.50;83.70;;;;;;4864318;29;88457;-72
2023/04/11 07:00:23;;;;;;;1.48;0.08;;;12.50;84.10;;;;;;4864068;28;87620;-72
2023/04/11 07:02:49;;;;;;;2.03;0.00;;;12.40;84.70;;;;;;4862946;28;88197;-72
2023/04/11 07:05:15;;;;;;;0.68;0.05;;;12.30;85.10;;;;;;4864170;29;87756;-72
2023/04/11 07:07:40;;;;;;;1.83;0.03;;;12.30;86.10;;;;;;4846779;29;87582;-72
2023/04/11 07:10:07;;;;;;;0.50;0.00;;;12.40;86.00;;;;;;4862753;28;87483;-72
2023/04/11 07:12:32;;;;;;;0.65;0.10;;;12.40;85.60;;;;;;4862131;29;89318;-72
2023/04/11 07:14:58;;;;;;;1.83;0.00;;;12.40;86.40;;;;;;4843073;29;88401;-72
2023/04/11 07:17:24;;;;;;;2.00;0.10;;;12.50;86.20;;;;;;4847673;28;88902;-72
2023/04/11 07:19:49;;;;;;;1.50;0.30;;;12.40;85.20;;;;;;4862434;28;87303;-72
2023/04/11 07:22:15;;;;;;;2.17;0.03;;;12.40;85.30;;;;;;4861155;28;88357;-72
2023/04/11 07:24:42;;;;;;;1.25;0.00;;;12.40;86.10;;;;;;4862502;29;88232;-72
2023/04/11 07:27:08;;;;;;;1.58;0.10;;;12.30;86.80;;;;;;4860648;28;87531;-72
2023/04/11 07:29:33;;;;;;;1.20;0.10;;;12.30;87.90;;;;;;4860015;29;88939;-72
2023/04/11 07:31:59;;;;;;;1.30;0.10;;;12.20;87.10;;;;;;4859851;29;89096;-72
2023/04/11 07:34:25;;;;;;;0.57;0.00;;;12.20;87.60;;;;;;4862920;28;87659;-72
2023/04/11 07:36:51;;;;;;;0.30;0.00;;;12.20;87.50;;;;;;4846069;29;87473;-72
2023/04/11 07:39:16;;;;;;;1.42;0.10;;;12.20;88.40;;;;;;4860972;29;87811;-72
2023/04/11 07:41:42;;;;;;;1.15;0.10;;;12.20;89.60;;;;;;4862392;29;89097;-72
2023/04/11 07:44:08;;;;;;;1.10;0.05;;;12.20;90.10;;;;;;4861932;28;87389;-72
2023/04/11 07:46:34;;;;;;;2.53;0.10;;;12.10;90.10;;;;;;4863414;28;88871;-72
2023/04/11 07:49:00;;;;;;;1.83;0.10;;;12.10;90.70;;;;;;4863938;29;87125;-72
2023/04/11 07:51:26;;;;;;;0.90;0.10;;;12.10;90.80;;;;;;4863217;29;88238;-72
2023/04/11 07:53:53;;;;;;;3.70;0.20;;;12.00;91.10;;;;;;4861097;28;87237;-72
2023/04/11 07:56:18;;;;;;;4.03;0.20;;;11.90;91.70;;;;;;4863754;29;87161;-72
2023/04/11 07:58:44;;;;;;;1.63;0.20;;;11.90;92.30;;;;;;4863554;29;87108;-72
2023/04/11 08:01:23;;;;;;;2.10;0.30;;;11.90;92.30;;;;;;4862875;29;87658;-72
2023/04/11 08:03:53;;;;;;;1.63;0.20;;;11.90;92.50;;;;;;4863394;29;88155;-72
2023/04/11 08:06:19;;;;;;;1.30;0.10;;;11.90;92.60;;;;;;4863298;29;87055;-70
2023/04/11 08:08:45;;;;;;;1.08;0.10;;;11.80;93.00;;;;;;4863728;28;87321;-73
2023/04/11 08:11:11;;;;;;;1.60;0.10;;;11.80;92.90;;;;;;4859130;29;89098;-72
2023/04/11 08:13:38;;;;;;;0.28;0.00;;;11.70;91.70;;;;;;4863318;29;88718;-72
2023/04/11 08:16:09;;;;;;;1.55;0.00;;;11.60;90.40;;;;;;4862888;29;87076;-72
2023/04/11 08:18:36;;;;;;;0.43;0.00;;;11.50;90.90;;;;;;4863202;28;87238;-72
2023/04/11 08:21:02;;;;;;;0.20;0.00;;;11.40;90.60;;;;;;4862767;29;87985;-72
2023/04/11 08:23:28;;;;;;;1.15;0.00;;;11.30;90.50;;;;;;4863322;29;87500;-71
2023/04/11 08:25:57;;;;;;;0.30;0.00;;;11.20;91.10;;;;;;4863051;29;87500;-72
2023/04/11 08:28:23;;;;;;;2.05;0.13;;;11.20;90.80;;;;;;4852720;29;87058;-72
2023/04/11 08:30:54;;;;;;;0.43;0.00;;;11.30;90.60;;;;;;4863170;29;88313;-72
2023/04/11 08:33:22;;;;;;;0.25;0.00;;;11.30;90.70;;;;;;4862584;29;87849;-72
2023/04/11 08:35:48;;;;;;;0.50;0.00;;;11.40;90.50;;;;;;4845298;29;88691;-72
2023/04/11 08:38:14;;;;;;;0.20;0.00;;;11.40;90.30;;;;;;4863162;29;87352;-72
2023/04/11 08:40:39;;;;;;;0.20;0.00;;;11.40;90.20;;;;;;4862493;29;88237;-72
2023/04/11 08:43:10;;;;;;;0.40;0.00;;;11.40;90.10;;;;;;4862620;29;87736;-72
2023/04/11 08:45:37;;;;;;;0.77;0.00;;;11.40;90.40;;;;;;4857359;29;87282;-72
2023/04/11 08:48:03;;;;;;;0.38;0.00;;;11.40;90.10;;;;;;4863743;28;87364;-72
2023/04/11 08:50:29;;;;;;;1.35;0.03;;;11.40;90.00;;;;;;4862474;29;88234;-72
2023/04/11 08:52:58;;;;;;;0.90;0.03;;;11.30;90.10;;;;;;4862643;29;88037;-72
2023/04/11 08:55:24;;;;;;;0.82;0.00;;;11.30;90.30;;;;;;4862694;29;89086;-72
2023/04/11 08:57:50;;;;;;;0.93;0.00;;;11.30;90.20;;;;;;4862714;29;87679;-71
2023/04/11 09:00:17;;;;;;;0.22;0.00;;;11.30;90.20;;;;;;4861821;29;88752;-72
2023/04/11 09:02:59;;;;;;;0.47;0.00;;;11.30;90.40;;;;;;4860285;28;89105;-72
2023/04/11 09:05:30;;;;;;;1.23;0.00;;;11.30;90.20;;;;;;4862853;29;87520;-72
2023/04/11 09:07:58;;;;;;;3.05;0.10;;;11.30;90.00;;;;;;4862537;29;87220;-72
2023/04/11 09:10:24;;;;;;;1.02;0.13;;;11.30;90.00;;;;;;4861610;28;88136;-72
2023/04/11 09:12:52;;;;;;;1.52;0.10;;;11.40;90.10;;;;;;4861770;29;88159;-72
2023/04/11 09:15:25;;;;;;;0.52;0.00;;;11.40;89.50;;;;;;4862625;29;87927;-72
2023/04/11 09:17:51;;;;;;;2.05;0.00;;;11.30;90.00;;;;;;4863976;29;86528;-72
2023/04/11 09:20:19;;;;;;;0.90;0.10;;;11.40;89.90;;;;;;4861117;28;88306;-72
2023/04/11 09:22:48;;;;;;;1.00;0.00;;;11.50;89.50;;;;;;4862109;28;87579;-72
2023/04/11 09:25:14;;;;;;;0.75;0.10;;;11.40;89.50;;;;;;4861775;29;88344;-72
2023/04/11 09:27:40;;;;;;;0.80;0.00;;;11.50;90.00;;;;;;4862492;29;87487;-72
2023/04/11 09:30:21;;;;;;;0.38;0.00;;;11.70;89.50;;;;;;4861607;29;89326;-72
2023/04/11 09:32:47;;;;;;;1.30;0.10;;;11.80;88.70;;;;;;4855335;28;87826;-72
2023/04/11 09:35:19;;;;;;;0.60;0.10;;;11.90;88.50;;;;;;4862006;28;87345;-72
2023/04/11 09:37:46;;;;;;;1.27;0.28;;;12.00;86.60;;;;;;4861830;29;87351;-72
2023/04/11 09:40:15;;;;;;;0.70;0.10;;;12.00;87.10;;;;;;4861642;28;87774;-72
2023/04/11 09:42:41;;;;;;;1.63;0.20;;;12.00;86.30;;;;;;4862175;29;86646;-72
2023/04/11 09:45:28;;;;;;;1.00;0.10;;;12.10;84.80;;;;;;4862051;29;87336;-72
2023/04/11 09:47:55;;;;;;;0.60;0.00;;;12.30;84.30;;;;;;4861640;29;87489;-72
2023/04/11 09:50:22;;;;;;;0.20;0.00;;;12.20;82.90;;;;;;4858104;28;88512;-72
2023/04/11 09:52:48;;;;;;;1.17;0.00;;;12.20;81.80;;;;;;4858274;28;88291;-72
2023/04/11 09:55:20;;;;;;;0.82;0.10;;;12.10;84.70;;;;;;4860372;28;87642;-72
2023/04/11 09:57:48;;;;;;;0.20;0.00;;;12.30;83.30;;;;;;4859537;28;87704;-72
2023/04/11 10:00:17;;;;;;;0.70;0.00;;;12.10;82.80;;;;;;4860177;28;88169;-72
2023/04/11 10:02:44;;;;;;;0.57;0.00;;;12.00;84.60;;;;;;4848411;28;87826;-72
2023/04/11 10:05:12;;;;;;;2.40;0.03;;;11.90;84.70;;;;;;4839983;29;89159;-72
2023/04/11 10:08:06;;;;;;;1.15;0.00;;;11.70;85.60;;;;;;4856964;29;88313;-72
2023/04/11 10:10:34;;;;;;;0.82;0.00;;;11.60;87.60;;;;;;4861973;28;87999;-72
2023/04/11 10:13:00;;;;;;;0.93;0.00;;;11.50;87.70;;;;;;4860690;28;88734;-72
2023/04/11 10:15:26;;;;;;;0.25;0.00;;;11.40;87.90;;;;;;4853857;28;90102;-72
2023/04/11 10:18:11;;;;;;;1.73;0.20;;;11.40;88.50;;;;;;4858479;29;87352;-72
2023/04/11 10:20:49;;;;;;;1.67;0.20;;;11.50;88.20;;;;;;4858205;29;88231;-72
2023/04/11 10:23:16;;;;;;;0.80;0.00;;;11.50;88.20;;;;;;4856453;29;88005;-72
2023/04/11 10:25:59;;;;;;;2.42;0.32;;;11.60;87.70;;;;;;4854335;29;87605;-72
2023/04/11 10:28:31;;;;;;;1.27;0.00;;;11.70;87.00;;;;;;4856039;29;87247;-72
2023/04/11 10:31:08;;;;;;;0.80;0.10;;;11.70;85.80;;;;;;4856083;29;87747;-72
2023/04/11 10:33:36;;;;;;;0.60;0.00;;;11.50;87.10;;;;;;4857253;29;87141;-72
2023/04/11 10:36:10;;;;;;;3.60;0.85;;;11.70;89.30;;;;;;4857852;29;87453;-72
2023/04/11 10:38:47;;;;;;;1.30;0.10;;;11.80;87.90;;;;;;4855984;28;87911;-72
2023/04/11 10:44:23;;;;;;;4.43;0.52;;;12.40;87.10;;;;;;4850729;29;88560;-72
2023/04/11 10:46:52;;;;;;;1.95;0.10;;;12.50;85.80;;;;;;4854909;29;87935;-71
2023/04/11 10:49:34;;;;;;;2.05;0.10;;;12.30;85.90;;;;;;4852986;28;87308;-72
2023/04/11 10:52:20;;;;;;;28.70;10.32;;;12.50;84.60;;;;;;4853715;29;88165;-72
2023/04/11 10:54:46;;;;;;;5.10;1.02;;;12.50;82.60;;;;;;4853696;29;88555;-72
2023/04/11 10:57:12;;;;;;;1.75;0.17;;;12.50;80.10;;;;;;4851374;29;89372;-72
2023/04/11 10:59:37;;;;;;;2.38;0.10;;;12.50;81.30;;;;;;4860807;29;87306;-72
2023/04/11 11:02:03;;;;;;;6.15;1.15;;;12.60;82.40;;;;;;4859169;29;89125;-72
2023/04/11 11:04:37;;;;;;;6.18;2.63;;;12.70;82.20;;;;;;4860025;29;87851;-73
2023/04/11 11:07:05;;;;;;;4.95;1.00;;;12.80;82.80;;;;;;4856231;28;88311;-71
2023/04/11 11:09:31;;;;;;;2.17;0.20;;;12.90;81.70;;;;;;4856135;29;88447;-71
2023/04/11 11:12:26;;;;;;;3.72;0.22;;;12.90;80.70;;;;;;4853220;29;87797;-73
2023/04/11 11:14:53;;;;;;;3.13;0.20;;;13.00;80.40;;;;;;4847817;28;87582;-73
2023/04/11 11:17:20;;;;;;;1.45;0.25;;;13.00;80.40;;;;;;4861708;28;87519;-73
2023/04/11 11:19:47;;;;;;;1.95;0.10;;;13.00;79.10;;;;;;4859646;28;87395;-73
2023/04/11 11:22:25;;;;;;;3.33;0.30;;;12.80;77.40;;;;;;4863638;28;89183;-73
2023/04/11 11:24:51;;;;;;;3.15;0.50;;;12.90;79.30;;;;;;4861769;28;87379;-73
2023/04/11 11:27:19;;;;;;;2.88;0.40;;;13.00;77.20;;;;;;4863332;29;87330;-72
2023/04/11 11:29:45;;;;;;;1.40;0.17;;;13.00;76.50;;;;;;4863661;29;87465;-73
2023/04/11 11:32:20;;;;;;;2.35;0.30;;;13.10;75.00;;;;;;4863034;29;88817;-73
2023/04/11 11:34:46;;;;;;;2.38;0.30;;;13.10;75.80;;;;;;4863424;29;89226;-73
2023/04/11 11:37:12;;;;;;;2.33;0.10;;;13.10;75.00;;;;;;4861049;28;87448;-72
2023/04/11 11:39:39;;;;;;;1.55;0.20;;;13.10;73.80;;;;;;4854814;28;88973;-72
2023/04/11 11:42:04;;;;;;;3.88;0.70;;;13.10;76.40;;;;;;4863015;29;88163;-73
2023/04/11 11:44:31;;;;;;;8.40;3.05;;;13.20;73.80;;;;;;4862831;29;87803;-73
2023/04/11 11:47:01;;;;;;;4.93;0.30;;;13.20;73.50;;;;;;4862479;28;87489;-73
2023/04/11 11:49:26;;;;;;;2.25;0.10;;;13.20;74.40;;;;;;4863953;29;86575;-73
2023/04/11 11:51:52;;;;;;;1.67;0.10;;;13.30;75.70;;;;;;4863232;29;88116;-73
2023/04/11 11:54:18;;;;;;;2.80;0.30;;;13.20;72.60;;;;;;4863326;29;87531;-73
2023/04/11 11:56:53;;;;;;;2.00;0.17;;;13.20;75.60;;;;;;4862505;28;88268;-73
2023/04/11 11:59:27;;;;;;;1.27;0.10;;;13.30;74.10;;;;;;4862826;29;87529;-73
2023/04/11 12:01:53;;;;;;;2.47;0.20;;;13.40;74.90;;;;;;4845615;29;88692;-73
2023/04/11 12:04:19;;;;;;;1.77;0.28;;;13.60;71.50;;;;;;4852779;29;87804;-72
2023/04/11 12:06:45;;;;;;;1.67;0.20;;;13.60;73.00;;;;;;4861314;28;87102;-72
2023/04/11 12:09:11;;;;;;;1.38;0.20;;;13.50;71.50;;;;;;4863199;29;87527;-73
2023/04/11 12:11:41;;;;;;;2.72;0.50;;;13.50;71.30;;;;;;4868425;28;87657;-72
2023/04/11 12:14:07;;;;;;;2.67;0.25;;;13.80;72.70;;;;;;4863367;29;87313;-72
2023/04/11 12:16:33;;;;;;;1.70;0.10;;;13.80;72.00;;;;;;4862312;28;87736;-73
2023/04/11 12:19:02;;;;;;;3.28;0.38;;;14.00;68.60;;;;;;4863324;29;87411;-72
2023/04/11 12:21:28;;;;;;;3.00;0.40;;;14.00;71.10;;;;;;4862020;29;88830;-72
2023/04/11 12:23:54;;;;;;;1.90;0.30;;;13.90;69.30;;;;;;4856443;28;89092;-73
2023/04/11 12:26:20;;;;;;;2.38;0.40;;;14.00;68.30;;;;;;4863334;29;87466;-73
2023/04/11 12:28:47;;;;;;;2.92;0.20;;;14.00;68.00;;;;;;4860500;28;87481;-72
2023/04/11 12:31:13;;;;;;;2.42;0.65;;;14.10;67.00;;;;;;4860795;29;88232;-73
2023/04/11 12:33:39;;;;;;;0.93;0.10;;;14.30;68.40;;;;;;4857296;28;87890;-72
2023/04/11 12:36:06;;;;;;;2.13;0.10;;;14.40;66.60;;;;;;4852930;29;87340;-73
2023/04/11 12:38:32;;;;;;;3.65;0.20;;;14.30;67.70;;;;;;4863049;28;86777;-72
2023/04/11 12:40:58;;;;;;;2.25;0.10;;;14.30;69.30;;;;;;4861321;28;88247;-73
2023/04/11 12:43:24;;;;;;;3.58;0.38;;;14.40;66.30;;;;;;4861024;29;87343;-73
2023/04/11 12:45:50;;;;;;;2.67;0.10;;;14.40;67.80;;;;;;4862399;29;88521;-72
2023/04/11 12:48:16;;;;;;;4.15;0.30;;;14.30;68.10;;;;;;4862799;29;87558;-73
2023/04/11 12:50:41;;;;;;;1.35;0.10;;;14.20;68.90;;;;;;4862051;28;88418;-73
2023/04/11 12:53:07;;;;;;;2.28;0.20;;;14.10;67.60;;;;;;4861831;29;88909;-73
2023/04/11 12:55:33;;;;;;;2.83;0.10;;;14.00;66.80;;;;;;4862355;29;87198;-73
2023/04/11 12:58:00;;;;;;;3.33;0.10;;;13.80;66.30;;;;;;4862142;29;87343;-73
2023/04/11 13:00:26;;;;;;;2.95;0.10;;;13.80;68.60;;;;;;4861738;29;89925;-73
2023/04/11 13:02:53;;;;;;;1.25;0.20;;;13.80;67.10;;;;;;4861515;29;87519;-73
2023/04/11 13:05:20;;;;;;;2.50;0.40;;;14.10;69.40;;;;;;4857147;29;87584;-72
2023/04/11 13:07:46;;;;;;;2.03;0.20;;;14.40;67.10;;;;;;4861287;28;87484;-72
2023/04/11 13:10:13;;;;;;;1.92;0.20;;;14.60;64.80;;;;;;4859354;28;88689;-72
2023/04/11 13:12:40;;;;;;;3.38;0.20;;;14.70;65.20;;;;;;4858303;29;89208;-72
2023/04/11 13:15:10;;;;;;;3.00;0.20;;;14.80;64.30;;;;;;4859619;29;87342;-72
2023/04/11 13:17:35;;;;;;;2.15;0.13;;;15.10;66.60;;;;;;4854075;28;87674;-75
2023/04/11 13:20:05;;;;;;;2.90;0.10;;;15.20;63.10;;;;;;4857020;29;88028;-72
2023/04/11 13:22:31;;;;;;;2.45;0.20;;;15.00;60.40;;;;;;4861798;29;87164;-72
2023/04/11 13:24:57;;;;;;;1.63;0.10;;;14.80;64.60;;;;;;4861973;29;87339;-72
2023/04/11 13:27:23;;;;;;;2.25;0.10;;;14.50;63.70;;;;;;4862763;29;86363;-73
2023/04/11 13:29:48;;;;;;;3.08;0.13;;;14.50;65.20;;;;;;4861174;28;88562;-72
2023/04/11 13:32:14;;;;;;;1.52;0.20;;;14.50;64.20;;;;;;4861871;29;87507;-72
2023/04/11 13:34:40;;;;;;;1.95;0.32;;;14.60;65.50;;;;;;4860675;29;88571;-72
2023/04/11 13:37:06;;;;;;;4.65;0.30;;;14.60;63.90;;;;;;4861818;29;87498;-72
2023/04/11 13:39:31;;;;;;;1.52;0.10;;;14.60;64.30;;;;;;4860577;29;87683;-72
2023/04/11 13:41:57;;;;;;;1.33;0.20;;;14.50;66.20;;;;;;4860149;29;87808;-72
2023/04/11 13:44:23;;;;;;;2.20;0.10;;;14.40;63.30;;;;;;4859640;29;87435;-72
2023/04/11 13:46:48;;;;;;;1.75;0.22;;;14.20;61.40;;;;;;4861934;29;87460;-72
2023/04/11 13:49:14;;;;;;;0.90;0.10;;;14.00;61.50;;;;;;4861399;28;87661;-72
2023/04/11 13:51:40;;;;;;;3.58;0.20;;;13.90;60.30;;;;;;4862488;29;86624;-72
2023/04/11 13:54:05;;;;;;;1.88;0.15;;;13.70;62.30;;;;;;4844215;29;87195;-72
2023/04/11 13:56:31;;;;;;;1.73;0.10;;;13.70;63.30;;;;;;4859868;29;87825;-72
2023/04/11 13:58:57;;;;;;;1.63;0.10;;;13.80;63.50;;;;;;4860189;29;89446;-72
2023/04/11 14:01:22;;;;;;;1.98;0.10;;;13.80;63.60;;;;;;4854922;29;89709;-72
2023/04/11 14:03:49;;;;;;;4.13;0.65;;;13.80;65.30;;;;;;4854049;29;87598;-72
2023/04/11 14:06:15;;;;;;;3.17;0.10;;;13.80;61.40;;;;;;4862190;29;87725;-72
2023/04/11 14:08:41;;;;;;;3.22;0.50;;;13.80;64.70;;;;;;4860338;29;88791;-72
2023/04/11 14:11:06;;;;;;;3.05;0.20;;;13.80;63.90;;;;;;4859436;28;87596;-72
2023/04/11 14:13:32;;;;;;;4.45;0.10;;;13.90;62.40;;;;;;4859811;28;87549;-72
2023/04/11 14:15:58;;;;;;;2.15;0.10;;;13.90;63.10;;;;;;4855803;28;86803;-72
2023/04/11 14:18:23;;;;;;;2.95;0.17;;;13.80;62.60;;;;;;4860720;29;87936;-72
2023/04/11 14:20:49;;;;;;;1.45;0.10;;;13.80;63.40;;;;;;4858512;29;87972;-72
2023/04/11 14:23:18;;;;;;;1.85;0.10;;;13.80;63.50;;;;;;4859736;28;88400;-73
2023/04/11 14:25:43;;;;;;;1.60;0.20;;;14.00;63.10;;;;;;4861968;29;87292;-72
2023/04/11 14:28:09;;;;;;;2.38;0.10;;;14.00;63.60;;;;;;4860481;28;87586;-72
2023/04/11 14:30:35;;;;;;;2.20;0.10;;;14.10;64.30;;;;;;4864557;29;87878;-72
2023/04/11 14:33:00;;;;;;;3.58;0.20;;;14.40;64.10;;;;;;4863367;28;88059;-72
2023/04/11 14:35:26;;;;;;;1.67;0.10;;;14.50;63.40;;;;;;4864991;29;87358;-72
2023/04/11 14:37:52;;;;;;;1.88;0.20;;;14.70;65.00;;;;;;4862615;28;88849;-72
2023/04/11 14:40:17;;;;;;;1.73;0.17;;;15.00;62.10;;;;;;4862559;28;88417;-72
2023/04/11 14:42:43;;;;;;;1.63;0.20;;;15.20;58.80;;;;;;4861015;29;88401;-72
2023/04/11 14:45:09;;;;;;;3.20;0.20;;;15.20;59.70;;;;;;4861840;28;87241;-72
2023/04/11 14:47:35;;;;;;;2.58;0.10;;;15.30;60.20;;;;;;4858757;29;89049;-72
2023/04/11 14:50:00;;;;;;;1.85;0.20;;;15.50;59.00;;;;;;4853389;29;89007;-72
2023/04/11 14:52:26;;;;;;;2.45;0.20;;;15.70;59.60;;;;;;4860626;29;87303;-72
2023/04/11 14:54:52;;;;;;;1.05;0.20;;;15.70;60.40;;;;;;4853419;28;87042;-72
2023/04/11 14:57:17;;;;;;;3.20;0.13;;;15.70;59.10;;;;;;4862402;28;87903;-72
2023/04/11 14:59:43;;;;;;;1.98;0.20;;;15.50;58.40;;;;;;4857973;29;87341;-72
2023/04/11 15:02:09;;;;;;;1.45;0.10;;;15.40;58.50;;;;;;4844424;29;87227;-72
2023/04/11 15:04:35;;;;;;;2.85;0.20;;;15.40;58.50;;;;;;4859244;29;87353;-72
2023/04/11 15:07:01;;;;;;;3.40;0.10;;;15.40;58.90;;;;;;4860525;28;88225;-72
2023/04/11 15:09:27;;;;;;;1.95;0.10;;;15.50;59.50;;;;;;4861687;28;87198;-72
2023/04/11 15:11:53;;;;;;;3.13;0.20;;;15.50;59.00;;;;;;4871224;28;88434;-72
2023/04/11 15:14:18;;;;;;;1.73;0.10;;;15.30;59.30;;;;;;4862035;28;87551;-72
2023/04/11 15:16:44;;;;;;;2.33;0.15;;;15.00;59.30;;;;;;4861374;28;88589;-72
2023/04/11 15:19:10;;;;;;;2.25;0.10;;;14.80;60.60;;;;;;4854642;29;87348;-72
2023/04/11 15:21:37;;;;;;;3.00;0.22;;;14.70;62.00;;;;;;4861958;29;87013;-72
2023/04/11 15:24:06;;;;;;;5.80;0.10;;;14.90;60.40;;;;;;4861266;29;87641;-72
2023/04/11 15:26:35;;;;;;;2.55;0.20;;;14.90;61.20;;;;;;4858909;29;89101;-74
2023/04/11 15:29:00;;;;;;;2.45;0.10;;;14.90;61.20;;;;;;4847466;28;87720;-72
2023/04/11 15:31:26;;;;;;;2.90;0.22;;;15.10;59.80;;;;;;4850723;29;88252;-73
2023/04/11 15:33:54;;;;;;;3.88;0.20;;;15.40;59.70;;;;;;4855778;29;87449;-73
2023/04/11 15:36:21;;;;;;;1.58;0.10;;;15.40;58.70;;;;;;4854721;29;90397;-73
2023/04/11 15:38:46;;;;;;;2.90;0.20;;;15.30;58.80;;;;;;4853230;28;88340;-73
2023/04/11 15:41:12;;;;;;;2.22;0.20;;;15.20;59.10;;;;;;4860994;29;87086;-73
2023/04/11 15:43:39;;;;;;;2.65;0.20;;;15.10;59.50;;;;;;4855509;28;87725;-73
2023/04/11 15:46:05;;;;;;;2.90;0.40;;;15.10;59.60;;;;;;4861619;29;87860;-74
2023/04/11 15:48:31;;;;;;;1.58;0.13;;;15.10;59.90;;;;;;4860361;28;88573;-72
2023/04/11 15:50:57;;;;;;;2.22;0.10;;;15.10;58.90;;;;;;4860119;28;87617;-72